Terminal Aerodrome Forecast
Issued by NWS Jackson, MS

Home | Current Version | Previous Version | Text Only | Print | Product List | Glossary On
Versions: 1 2 3 4 5 6 7 8 9 10 11 12 13
000
FTUS44 KMEG 160528
TAFTUP
TAF
KTUP 160528Z 1606/1706 33010KT P6SM OVC060
     FM160900 34013G20KT 4SM -SN BR OVC015
      TEMPO 1610/1614 1SM -SN BR OVC010
     FM161800 02013KT P6SM OVC015
     FM170000 01010KT P6SM BKN050=

USA.gov is the U.S. government's official web portal to all federal, state and local government web resources and services.